sensor_id;sensor_type;location;lat;lon;timestamp;P1;durP1;ratioP1;P2;durP2;ratioP2
17854;SDS011;9053;53.358;6.382;2023-04-25T00:00:54;24.40;;;5.27;;
17854;SDS011;9053;53.358;6.382;2023-04-25T00:03:24;9.37;;;2.80;;
17854;SDS011;9053;53.358;6.382;2023-04-25T00:05:58;13.00;;;3.20;;
17854;SDS011;9053;53.358;6.382;2023-04-25T00:08:28;13.73;;;3.40;;
17854;SDS011;9053;53.358;6.382;2023-04-25T00:11:01;11.67;;;3.00;;
17854;SDS011;9053;53.358;6.382;2023-04-25T00:13:31;6.47;;;2.70;;
17854;SDS011;9053;53.358;6.382;2023-04-25T00:16:01;11.00;;;3.07;;
17854;SDS011;9053;53.358;6.382;2023-04-25T00:18:31;13.07;;;3.10;;
17854;SDS011;9053;53.358;6.382;2023-04-25T00:21:01;11.33;;;3.03;;
17854;SDS011;9053;53.358;6.382;2023-04-25T00:23:32;11.53;;;2.87;;
17854;SDS011;9053;53.358;6.382;2023-04-25T00:26:05;10.07;;;2.53;;
17854;SDS011;9053;53.358;6.382;2023-04-25T00:28:36;13.57;;;2.53;;
17854;SDS011;9053;53.358;6.382;2023-04-25T00:31:06;10.03;;;2.87;;
17854;SDS011;9053;53.358;6.382;2023-04-25T00:33:36;11.50;;;3.03;;
17854;SDS011;9053;53.358;6.382;2023-04-25T00:36:06;11.37;;;2.73;;
17854;SDS011;9053;53.358;6.382;2023-04-25T00:38:37;8.93;;;2.67;;
17854;SDS011;9053;53.358;6.382;2023-04-25T00:41:10;12.60;;;2.40;;
17854;SDS011;9053;53.358;6.382;2023-04-25T00:43:41;11.27;;;2.40;;
17854;SDS011;9053;53.358;6.382;2023-04-25T00:46:11;11.77;;;2.70;;
17854;SDS011;9053;53.358;6.382;2023-04-25T00:48:41;9.20;;;2.40;;
17854;SDS011;9053;53.358;6.382;2023-04-25T00:51:13;12.40;;;2.97;;
17854;SDS011;9053;53.358;6.382;2023-04-25T00:53:45;10.00;;;2.53;;
17854;SDS011;9053;53.358;6.382;2023-04-25T00:56:20;9.63;;;2.60;;
17854;SDS011;9053;53.358;6.382;2023-04-25T00:58:50;10.90;;;2.83;;
17854;SDS011;9053;53.358;6.382;2023-04-25T01:01:26;10.77;;;2.57;;
17854;SDS011;9053;53.358;6.382;2023-04-25T01:03:56;8.43;;;2.27;;
17854;SDS011;9053;53.358;6.382;2023-04-25T01:06:31;7.83;;;2.00;;
17854;SDS011;9053;53.358;6.382;2023-04-25T01:09:01;8.40;;;2.57;;
17854;SDS011;9053;53.358;6.382;2023-04-25T01:11:35;9.33;;;2.90;;
17854;SDS011;9053;53.358;6.382;2023-04-25T01:14:06;8.87;;;2.67;;
17854;SDS011;9053;53.358;6.382;2023-04-25T01:16:36;11.27;;;2.97;;
17854;SDS011;9053;53.358;6.382;2023-04-25T01:19:07;13.37;;;3.30;;
17854;SDS011;9053;53.358;6.382;2023-04-25T01:21:41;13.70;;;3.43;;
17854;SDS011;9053;53.358;6.382;2023-04-25T01:24:12;12.50;;;2.90;;
17854;SDS011;9053;53.358;6.382;2023-04-25T01:26:42;15.17;;;3.57;;
17854;SDS011;9053;53.358;6.382;2023-04-25T01:29:16;11.23;;;2.90;;
17854;SDS011;9053;53.358;6.382;2023-04-25T01:31:46;11.33;;;3.23;;
17854;SDS011;9053;53.358;6.382;2023-04-25T01:34:17;13.57;;;3.50;;
17854;SDS011;9053;53.358;6.382;2023-04-25T01:36:49;11.27;;;2.60;;
17854;SDS011;9053;53.358;6.382;2023-04-25T01:39:20;12.90;;;3.27;;
17854;SDS011;9053;53.358;6.382;2023-04-25T01:41:50;14.17;;;3.57;;
17854;SDS011;9053;53.358;6.382;2023-04-25T01:44:22;10.47;;;2.90;;
17854;SDS011;9053;53.358;6.382;2023-04-25T01:46:52;12.13;;;3.27;;
17854;SDS011;9053;53.358;6.382;2023-04-25T01:49:22;9.87;;;2.70;;
17854;SDS011;9053;53.358;6.382;2023-04-25T01:51:54;12.60;;;2.80;;
17854;SDS011;9053;53.358;6.382;2023-04-25T01:54:24;10.57;;;3.00;;
17854;SDS011;9053;53.358;6.382;2023-04-25T01:56:56;11.87;;;3.13;;
17854;SDS011;9053;53.358;6.382;2023-04-25T01:59:28;13.00;;;2.63;;
17854;SDS011;9053;53.358;6.382;2023-04-25T02:02:01;10.73;;;2.90;;
17854;SDS011;9053;53.358;6.382;2023-04-25T02:04:33;9.67;;;2.67;;
17854;SDS011;9053;53.358;6.382;2023-04-25T02:07:06;9.90;;;2.40;;
17854;SDS011;9053;53.358;6.382;2023-04-25T02:09:36;8.73;;;2.77;;
17854;SDS011;9053;53.358;6.382;2023-04-25T02:12:07;12.33;;;2.70;;
17854;SDS011;9053;53.358;6.382;2023-04-25T02:14:37;8.10;;;2.60;;
17854;SDS011;9053;53.358;6.382;2023-04-25T02:17:07;7.63;;;2.40;;
17854;SDS011;9053;53.358;6.382;2023-04-25T02:19:39;6.40;;;2.07;;
17854;SDS011;9053;53.358;6.382;2023-04-25T02:22:11;7.23;;;2.33;;
17854;SDS011;9053;53.358;6.382;2023-04-25T02:24:41;13.23;;;2.40;;
17854;SDS011;9053;53.358;6.382;2023-04-25T02:27:11;8.63;;;2.40;;
17854;SDS011;9053;53.358;6.382;2023-04-25T02:29:41;10.30;;;2.33;;
17854;SDS011;9053;53.358;6.382;2023-04-25T02:32:11;12.07;;;2.63;;
17854;SDS011;9053;53.358;6.382;2023-04-25T02:34:41;11.13;;;2.53;;
17854;SDS011;9053;53.358;6.382;2023-04-25T02:37:13;10.73;;;2.10;;
17854;SDS011;9053;53.358;6.382;2023-04-25T02:39:43;11.23;;;2.40;;
17854;SDS011;9053;53.358;6.382;2023-04-25T02:42:13;9.43;;;2.70;;
17854;SDS011;9053;53.358;6.382;2023-04-25T02:44:43;12.40;;;2.60;;
17854;SDS011;9053;53.358;6.382;2023-04-25T02:47:13;12.93;;;2.50;;
17854;SDS011;9053;53.358;6.382;2023-04-25T02:49:43;11.13;;;2.40;;
17854;SDS011;9053;53.358;6.382;2023-04-25T02:52:15;9.10;;;2.27;;
17854;SDS011;9053;53.358;6.382;2023-04-25T02:54:45;12.90;;;2.50;;
17854;SDS011;9053;53.358;6.382;2023-04-25T02:57:15;9.53;;;2.77;;
17854;SDS011;9053;53.358;6.382;2023-04-25T02:59:44;10.97;;;2.33;;
17854;SDS011;9053;53.358;6.382;2023-04-25T03:02:14;10.47;;;2.07;;
17854;SDS011;9053;53.358;6.382;2023-04-25T03:04:45;9.03;;;2.50;;
17854;SDS011;9053;53.358;6.382;2023-04-25T03:07:19;7.23;;;1.97;;
17854;SDS011;9053;53.358;6.382;2023-04-25T03:09:49;9.30;;;2.70;;
17854;SDS011;9053;53.358;6.382;2023-04-25T03:12:19;8.80;;;2.50;;
17854;SDS011;9053;53.358;6.382;2023-04-25T03:14:49;6.07;;;2.00;;
17854;SDS011;9053;53.358;6.382;2023-04-25T03:17:19;13.17;;;2.30;;
17854;SDS011;9053;53.358;6.382;2023-04-25T03:19:49;8.57;;;2.10;;
17854;SDS011;9053;53.358;6.382;2023-04-25T03:22:21;7.27;;;2.07;;
17854;SDS011;9053;53.358;6.382;2023-04-25T03:24:51;5.03;;;1.90;;
17854;SDS011;9053;53.358;6.382;2023-04-25T03:27:21;9.20;;;2.17;;
17854;SDS011;9053;53.358;6.382;2023-04-25T03:29:51;9.40;;;2.10;;
17854;SDS011;9053;53.358;6.382;2023-04-25T03:32:21;8.27;;;2.20;;
17854;SDS011;9053;53.358;6.382;2023-04-25T03:34:51;11.33;;;2.83;;
17854;SDS011;9053;53.358;6.382;2023-04-25T03:37:24;12.23;;;2.80;;
17854;SDS011;9053;53.358;6.382;2023-04-25T03:39:54;7.80;;;2.73;;
17854;SDS011;9053;53.358;6.382;2023-04-25T03:42:23;16.20;;;2.70;;
17854;SDS011;9053;53.358;6.382;2023-04-25T03:44:54;7.17;;;2.23;;
17854;SDS011;9053;53.358;6.382;2023-04-25T03:47:24;11.73;;;2.67;;
17854;SDS011;9053;53.358;6.382;2023-04-25T03:49:54;7.63;;;2.63;;
17854;SDS011;9053;53.358;6.382;2023-04-25T03:52:26;10.07;;;2.43;;
17854;SDS011;9053;53.358;6.382;2023-04-25T03:54:56;9.37;;;2.60;;
17854;SDS011;9053;53.358;6.382;2023-04-25T03:57:26;9.30;;;2.10;;
17854;SDS011;9053;53.358;6.382;2023-04-25T03:59:56;9.77;;;2.83;;
17854;SDS011;9053;53.358;6.382;2023-04-25T04:02:26;10.33;;;2.57;;
17854;SDS011;9053;53.358;6.382;2023-04-25T04:04:56;8.80;;;2.10;;
17854;SDS011;9053;53.358;6.382;2023-04-25T04:07:30;8.70;;;2.10;;
17854;SDS011;9053;53.358;6.382;2023-04-25T04:10:04;10.97;;;2.03;;
17854;SDS011;9053;53.358;6.382;2023-04-25T04:12:34;6.83;;;2.30;;
17854;SDS011;9053;53.358;6.382;2023-04-25T04:15:04;11.03;;;2.57;;
17854;SDS011;9053;53.358;6.382;2023-04-25T04:17:35;9.40;;;2.50;;
17854;SDS011;9053;53.358;6.382;2023-04-25T04:20:05;6.60;;;2.20;;
17854;SDS011;9053;53.358;6.382;2023-04-25T04:22:40;9.20;;;2.00;;
17854;SDS011;9053;53.358;6.382;2023-04-25T04:25:10;9.70;;;2.23;;
17854;SDS011;9053;53.358;6.382;2023-04-25T04:27:40;7.93;;;2.07;;
17854;SDS011;9053;53.358;6.382;2023-04-25T04:30:11;13.13;;;2.67;;
17854;SDS011;9053;53.358;6.382;2023-04-25T04:32:42;6.70;;;1.93;;
17854;SDS011;9053;53.358;6.382;2023-04-25T04:35:14;9.93;;;2.50;;
17854;SDS011;9053;53.358;6.382;2023-04-25T04:37:47;11.90;;;2.10;;
17854;SDS011;9053;53.358;6.382;2023-04-25T04:40:17;9.63;;;2.00;;
17854;SDS011;9053;53.358;6.382;2023-04-25T04:42:47;5.83;;;1.70;;
17854;SDS011;9053;53.358;6.382;2023-04-25T04:45:17;5.93;;;1.40;;
17854;SDS011;9053;53.358;6.382;2023-04-25T04:47:47;3.30;;;1.47;;
17854;SDS011;9053;53.358;6.382;2023-04-25T04:50:17;3.20;;;1.23;;
17854;SDS011;9053;53.358;6.382;2023-04-25T04:52:50;5.60;;;2.10;;
17854;SDS011;9053;53.358;6.382;2023-04-25T04:55:21;3.10;;;1.20;;
17854;SDS011;9053;53.358;6.382;2023-04-25T04:57:50;5.27;;;1.27;;
17854;SDS011;9053;53.358;6.382;2023-04-25T05:00:20;3.47;;;1.40;;
17854;SDS011;9053;53.358;6.382;2023-04-25T05:02:53;4.10;;;1.67;;
17854;SDS011;9053;53.358;6.382;2023-04-25T05:05:23;7.50;;;2.33;;
17854;SDS011;9053;53.358;6.382;2023-04-25T05:07:55;5.33;;;1.90;;
17854;SDS011;9053;53.358;6.382;2023-04-25T05:10:25;8.00;;;2.50;;
17854;SDS011;9053;53.358;6.382;2023-04-25T05:12:55;9.07;;;2.03;;
17854;SDS011;9053;53.358;6.382;2023-04-25T05:15:25;8.70;;;2.20;;
17854;SDS011;9053;53.358;6.382;2023-04-25T05:17:57;10.93;;;2.83;;
17854;SDS011;9053;53.358;6.382;2023-04-25T05:20:28;7.40;;;2.47;;
17854;SDS011;9053;53.358;6.382;2023-04-25T05:23:00;11.27;;;2.73;;
17854;SDS011;9053;53.358;6.382;2023-04-25T05:25:30;8.23;;;2.77;;
17854;SDS011;9053;53.358;6.382;2023-04-25T05:28:00;8.53;;;2.30;;
17854;SDS011;9053;53.358;6.382;2023-04-25T05:30:31;10.47;;;2.77;;
17854;SDS011;9053;53.358;6.382;2023-04-25T05:33:01;9.20;;;2.00;;
17854;SDS011;9053;53.358;6.382;2023-04-25T05:35:31;10.87;;;2.27;;
17854;SDS011;9053;53.358;6.382;2023-04-25T05:38:03;6.47;;;2.00;;
17854;SDS011;9053;53.358;6.382;2023-04-25T05:40:35;4.73;;;1.97;;
17854;SDS011;9053;53.358;6.382;2023-04-25T05:43:05;2.37;;;1.10;;
17854;SDS011;9053;53.358;6.382;2023-04-25T05:45:34;5.63;;;1.63;;
17854;SDS011;9053;53.358;6.382;2023-04-25T05:48:04;2.60;;;1.20;;
17854;SDS011;9053;53.358;6.382;2023-04-25T05:50:34;3.33;;;1.13;;
17854;SDS011;9053;53.358;6.382;2023-04-25T05:53:10;3.53;;;1.20;;
17854;SDS011;9053;53.358;6.382;2023-04-25T05:55:40;7.13;;;1.33;;
17854;SDS011;9053;53.358;6.382;2023-04-25T05:58:09;3.40;;;1.60;;
17854;SDS011;9053;53.358;6.382;2023-04-25T06:00:39;5.97;;;1.33;;
17854;SDS011;9053;53.358;6.382;2023-04-25T06:03:17;4.40;;;1.43;;
17854;SDS011;9053;53.358;6.382;2023-04-25T06:05:47;3.97;;;1.53;;
17854;SDS011;9053;53.358;6.382;2023-04-25T06:08:20;12.10;;;2.00;;
17854;SDS011;9053;53.358;6.382;2023-04-25T06:10:50;7.03;;;1.40;;
17854;SDS011;9053;53.358;6.382;2023-04-25T06:13:21;5.90;;;1.60;;
17854;SDS011;9053;53.358;6.382;2023-04-25T06:15:51;8.87;;;1.80;;
17854;SDS011;9053;53.358;6.382;2023-04-25T06:18:21;9.73;;;2.10;;
17854;SDS011;9053;53.358;6.382;2023-04-25T06:20:51;10.40;;;2.47;;
17854;SDS011;9053;53.358;6.382;2023-04-25T06:23:24;8.03;;;1.90;;
17854;SDS011;9053;53.358;6.382;2023-04-25T06:25:54;7.13;;;2.03;;
17854;SDS011;9053;53.358;6.382;2023-04-25T06:28:24;5.07;;;1.70;;
17854;SDS011;9053;53.358;6.382;2023-04-25T06:30:53;7.70;;;2.00;;
17854;SDS011;9053;53.358;6.382;2023-04-25T06:33:23;8.50;;;1.93;;
17854;SDS011;9053;53.358;6.382;2023-04-25T06:35:53;5.23;;;2.00;;
17854;SDS011;9053;53.358;6.382;2023-04-25T06:38:26;6.10;;;1.90;;
17854;SDS011;9053;53.358;6.382;2023-04-25T06:40:56;3.40;;;1.47;;
17854;SDS011;9053;53.358;6.382;2023-04-25T06:43:25;3.20;;;1.17;;
17854;SDS011;9053;53.358;6.382;2023-04-25T06:45:59;2.60;;;1.40;;
17854;SDS011;9053;53.358;6.382;2023-04-25T06:48:29;4.80;;;1.10;;
17854;SDS011;9053;53.358;6.382;2023-04-25T06:50:59;3.33;;;1.23;;
17854;SDS011;9053;53.358;6.382;2023-04-25T06:53:31;6.33;;;1.50;;
17854;SDS011;9053;53.358;6.382;2023-04-25T06:56:01;3.60;;;1.30;;
17854;SDS011;9053;53.358;6.382;2023-04-25T06:58:32;4.63;;;1.63;;
17854;SDS011;9053;53.358;6.382;2023-04-25T07:01:02;3.57;;;1.20;;
17854;SDS011;9053;53.358;6.382;2023-04-25T07:03:35;6.07;;;1.53;;
17854;SDS011;9053;53.358;6.382;2023-04-25T07:06:06;5.83;;;1.87;;
17854;SDS011;9053;53.358;6.382;2023-04-25T07:08:39;7.33;;;1.90;;
17854;SDS011;9053;53.358;6.382;2023-04-25T07:11:08;7.93;;;1.70;;
17854;SDS011;9053;53.358;6.382;2023-04-25T07:13:38;7.40;;;1.90;;
17854;SDS011;9053;53.358;6.382;2023-04-25T07:16:08;5.73;;;1.63;;
17854;SDS011;9053;53.358;6.382;2023-04-25T07:18:38;4.70;;;1.53;;
17854;SDS011;9053;53.358;6.382;2023-04-25T07:21:08;6.50;;;1.50;;
17854;SDS011;9053;53.358;6.382;2023-04-25T07:23:40;6.13;;;1.40;;
17854;SDS011;9053;53.358;6.382;2023-04-25T07:26:10;10.83;;;1.83;;
17854;SDS011;9053;53.358;6.382;2023-04-25T07:28:40;6.77;;;1.40;;
17854;SDS011;9053;53.358;6.382;2023-04-25T07:31:10;4.80;;;1.50;;
17854;SDS011;9053;53.358;6.382;2023-04-25T07:33:43;4.37;;;1.20;;
17854;SDS011;9053;53.358;6.382;2023-04-25T07:36:13;5.90;;;1.20;;
17854;SDS011;9053;53.358;6.382;2023-04-25T07:38:45;2.97;;;1.10;;
17854;SDS011;9053;53.358;6.382;2023-04-25T07:41:15;2.27;;;1.07;;
17854;SDS011;9053;53.358;6.382;2023-04-25T07:43:45;7.00;;;1.20;;
17854;SDS011;9053;53.358;6.382;2023-04-25T07:46:20;7.47;;;1.63;;
17854;SDS011;9053;53.358;6.382;2023-04-25T07:48:50;5.53;;;1.57;;
17854;SDS011;9053;53.358;6.382;2023-04-25T07:51:20;5.60;;;1.50;;
17854;SDS011;9053;53.358;6.382;2023-04-25T07:53:52;5.13;;;1.40;;
17854;SDS011;9053;53.358;6.382;2023-04-25T07:56:22;5.47;;;1.67;;
17854;SDS011;9053;53.358;6.382;2023-04-25T07:58:52;3.73;;;1.20;;
17854;SDS011;9053;53.358;6.382;2023-04-25T08:01:22;3.77;;;1.43;;
17854;SDS011;9053;53.358;6.382;2023-04-25T08:03:55;2.93;;;1.23;;
17854;SDS011;9053;53.358;6.382;2023-04-25T08:06:27;2.43;;;0.90;;
17854;SDS011;9053;53.358;6.382;2023-04-25T08:09:00;3.03;;;1.10;;
17854;SDS011;9053;53.358;6.382;2023-04-25T08:11:31;2.73;;;1.03;;
17854;SDS011;9053;53.358;6.382;2023-04-25T08:14:01;4.20;;;1.10;;
17854;SDS011;9053;53.358;6.382;2023-04-25T08:16:31;3.47;;;1.00;;
17854;SDS011;9053;53.358;6.382;2023-04-25T08:19:04;5.10;;;1.30;;
17854;SDS011;9053;53.358;6.382;2023-04-25T08:21:34;3.67;;;1.53;;
17854;SDS011;9053;53.358;6.382;2023-04-25T08:24:07;5.97;;;1.20;;
17854;SDS011;9053;53.358;6.382;2023-04-25T08:26:37;3.87;;;1.20;;
17854;SDS011;9053;53.358;6.382;2023-04-25T08:29:08;3.03;;;1.27;;
17854;SDS011;9053;53.358;6.382;2023-04-25T08:31:38;4.30;;;1.27;;
17854;SDS011;9053;53.358;6.382;2023-04-25T08:34:08;6.07;;;1.70;;
17854;SDS011;9053;53.358;6.382;2023-04-25T08:36:38;7.30;;;1.70;;
17854;SDS011;9053;53.358;6.382;2023-04-25T08:39:11;8.20;;;1.73;;
17854;SDS011;9053;53.358;6.382;2023-04-25T08:41:41;4.13;;;1.70;;
17854;SDS011;9053;53.358;6.382;2023-04-25T08:44:11;5.73;;;1.60;;
17854;SDS011;9053;53.358;6.382;2023-04-25T08:46:41;5.50;;;1.50;;
17854;SDS011;9053;53.358;6.382;2023-04-25T08:49:11;8.33;;;1.90;;
17854;SDS011;9053;53.358;6.382;2023-04-25T08:51:45;4.07;;;1.60;;
17854;SDS011;9053;53.358;6.382;2023-04-25T08:54:20;7.53;;;1.67;;
17854;SDS011;9053;53.358;6.382;2023-04-25T08:56:55;8.57;;;1.73;;
17854;SDS011;9053;53.358;6.382;2023-04-25T08:59:26;6.73;;;1.80;;
17854;SDS011;9053;53.358;6.382;2023-04-25T09:02:02;8.33;;;1.70;;
17854;SDS011;9053;53.358;6.382;2023-04-25T09:04:33;9.97;;;1.97;;
17854;SDS011;9053;53.358;6.382;2023-04-25T09:07:03;5.97;;;1.90;;
17854;SDS011;9053;53.358;6.382;2023-04-25T09:09:35;9.80;;;2.30;;
17854;SDS011;9053;53.358;6.382;2023-04-25T09:12:05;5.50;;;1.53;;
17854;SDS011;9053;53.358;6.382;2023-04-25T09:14:35;7.90;;;1.80;;
17854;SDS011;9053;53.358;6.382;2023-04-25T09:17:05;6.07;;;1.57;;
17854;SDS011;9053;53.358;6.382;2023-04-25T09:19:36;6.13;;;1.70;;
17854;SDS011;9053;53.358;6.382;2023-04-25T09:22:08;5.93;;;1.93;;
17854;SDS011;9053;53.358;6.382;2023-04-25T09:24:42;7.17;;;1.80;;
17854;SDS011;9053;53.358;6.382;2023-04-25T09:27:21;6.47;;;1.80;;
17854;SDS011;9053;53.358;6.382;2023-04-25T09:29:56;5.70;;;1.73;;
17854;SDS011;9053;53.358;6.382;2023-04-25T09:32:27;5.10;;;1.80;;
17854;SDS011;9053;53.358;6.382;2023-04-25T09:34:58;10.70;;;2.00;;
17854;SDS011;9053;53.358;6.382;2023-04-25T09:37:28;10.90;;;2.00;;
17854;SDS011;9053;53.358;6.382;2023-04-25T09:40:05;11.77;;;2.47;;
17854;SDS011;9053;53.358;6.382;2023-04-25T09:42:40;7.03;;;1.93;;
17854;SDS011;9053;53.358;6.382;2023-04-25T09:45:12;8.97;;;1.90;;
17854;SDS011;9053;53.358;6.382;2023-04-25T09:47:42;7.80;;;1.90;;
17854;SDS011;9053;53.358;6.382;2023-04-25T09:50:15;6.93;;;2.40;;
17854;SDS011;9053;53.358;6.382;2023-04-25T09:52:46;9.77;;;2.20;;
17854;SDS011;9053;53.358;6.382;2023-04-25T09:55:34;6.10;;;1.80;;
17854;SDS011;9053;53.358;6.382;2023-04-25T09:58:05;6.97;;;1.70;;
17854;SDS011;9053;53.358;6.382;2023-04-25T10:00:35;7.13;;;1.70;;
17854;SDS011;9053;53.358;6.382;2023-04-25T10:03:07;4.90;;;1.60;;
17854;SDS011;9053;53.358;6.382;2023-04-25T10:05:37;5.87;;;1.60;;
17854;SDS011;9053;53.358;6.382;2023-04-25T10:08:08;9.10;;;2.47;;
17854;SDS011;9053;53.358;6.382;2023-04-25T10:10:40;6.60;;;2.20;;
17854;SDS011;9053;53.358;6.382;2023-04-25T10:13:10;7.37;;;2.10;;
17854;SDS011;9053;53.358;6.382;2023-04-25T10:15:41;9.80;;;1.80;;
17854;SDS011;9053;53.358;6.382;2023-04-25T10:18:11;4.47;;;1.70;;
17854;SDS011;9053;53.358;6.382;2023-04-25T10:20:44;3.30;;;1.27;;
17854;SDS011;9053;53.358;6.382;2023-04-25T10:23:14;6.80;;;1.80;;
17854;SDS011;9053;53.358;6.382;2023-04-25T10:25:48;4.50;;;2.13;;
17854;SDS011;9053;53.358;6.382;2023-04-25T10:28:19;6.70;;;1.70;;
17854;SDS011;9053;53.358;6.382;2023-04-25T10:30:59;6.77;;;1.87;;
17854;SDS011;9053;53.358;6.382;2023-04-25T10:33:30;9.13;;;1.43;;
17854;SDS011;9053;53.358;6.382;2023-04-25T10:36:09;4.20;;;1.67;;
17854;SDS011;9053;53.358;6.382;2023-04-25T10:38:41;4.50;;;1.50;;
17854;SDS011;9053;53.358;6.382;2023-04-25T10:41:15;4.63;;;1.40;;
17854;SDS011;9053;53.358;6.382;2023-04-25T10:43:48;7.50;;;1.57;;
17854;SDS011;9053;53.358;6.382;2023-04-25T10:46:19;6.47;;;1.70;;
17854;SDS011;9053;53.358;6.382;2023-04-25T10:48:53;8.57;;;1.70;;
17854;SDS011;9053;53.358;6.382;2023-04-25T10:51:25;4.93;;;1.70;;
17854;SDS011;9053;53.358;6.382;2023-04-25T10:54:09;5.83;;;1.83;;
17854;SDS011;9053;53.358;6.382;2023-04-25T10:56:41;4.43;;;1.53;;
17854;SDS011;9053;53.358;6.382;2023-04-25T10:59:13;6.40;;;1.67;;
17854;SDS011;9053;53.358;6.382;2023-04-25T11:01:45;7.17;;;2.03;;
17854;SDS011;9053;53.358;6.382;2023-04-25T11:04:20;9.47;;;2.40;;
17854;SDS011;9053;53.358;6.382;2023-04-25T11:06:55;6.00;;;1.53;;
17854;SDS011;9053;53.358;6.382;2023-04-25T11:09:33;8.90;;;1.87;;
17854;SDS011;9053;53.358;6.382;2023-04-25T11:12:09;8.57;;;1.93;;
17854;SDS011;9053;53.358;6.382;2023-04-25T11:14:39;8.10;;;1.77;;
17854;SDS011;9053;53.358;6.382;2023-04-25T11:17:10;7.03;;;1.80;;
17854;SDS011;9053;53.358;6.382;2023-04-25T11:19:40;6.93;;;1.90;;
17854;SDS011;9053;53.358;6.382;2023-04-25T11:22:10;8.10;;;1.73;;
17854;SDS011;9053;53.358;6.382;2023-04-25T11:24:40;6.57;;;1.57;;
17854;SDS011;9053;53.358;6.382;2023-04-25T11:27:12;11.93;;;2.07;;
17854;SDS011;9053;53.358;6.382;2023-04-25T11:29:42;8.27;;;1.80;;
17854;SDS011;9053;53.358;6.382;2023-04-25T11:32:14;7.27;;;1.80;;
17854;SDS011;9053;53.358;6.382;2023-04-25T11:34:47;7.13;;;2.03;;
17854;SDS011;9053;53.358;6.382;2023-04-25T11:37:16;11.30;;;1.83;;
17854;SDS011;9053;53.358;6.382;2023-04-25T11:39:47;5.43;;;1.47;;
17854;SDS011;9053;53.358;6.382;2023-04-25T11:42:20;5.73;;;1.60;;
17854;SDS011;9053;53.358;6.382;2023-04-25T11:44:50;8.77;;;1.60;;
17854;SDS011;9053;53.358;6.382;2023-04-25T11:47:27;9.27;;;1.60;;
17854;SDS011;9053;53.358;6.382;2023-04-25T11:49:59;7.93;;;1.63;;
17854;SDS011;9053;53.358;6.382;2023-04-25T11:52:36;6.10;;;1.90;;
17854;SDS011;9053;53.358;6.382;2023-04-25T11:55:08;8.60;;;1.43;;
17854;SDS011;9053;53.358;6.382;2023-04-25T11:57:42;4.70;;;1.70;;
17854;SDS011;9053;53.358;6.382;2023-04-25T12:00:13;8.60;;;1.60;;
17854;SDS011;9053;53.358;6.382;2023-04-25T12:02:51;3.87;;;1.33;;
17854;SDS011;9053;53.358;6.382;2023-04-25T12:05:24;4.43;;;1.23;;
17854;SDS011;9053;53.358;6.382;2023-04-25T12:08:09;5.57;;;1.57;;
17854;SDS011;9053;53.358;6.382;2023-04-25T12:10:42;4.60;;;1.50;;
17854;SDS011;9053;53.358;6.382;2023-04-25T12:13:22;7.70;;;1.73;;
17854;SDS011;9053;53.358;6.382;2023-04-25T12:15:54;6.90;;;1.70;;
17854;SDS011;9053;53.358;6.382;2023-04-25T12:18:24;11.73;;;2.77;;
17854;SDS011;9053;53.358;6.382;2023-04-25T12:20:55;7.07;;;1.70;;
17854;SDS011;9053;53.358;6.382;2023-04-25T12:23:25;7.70;;;1.60;;
17854;SDS011;9053;53.358;6.382;2023-04-25T12:25:59;6.33;;;1.77;;
17854;SDS011;9053;53.358;6.382;2023-04-25T12:28:33;8.83;;;1.43;;
17854;SDS011;9053;53.358;6.382;2023-04-25T12:31:03;8.30;;;1.90;;
17854;SDS011;9053;53.358;6.382;2023-04-25T12:33:34;6.00;;;1.60;;
17854;SDS011;9053;53.358;6.382;2023-04-25T12:36:06;6.30;;;1.60;;
17854;SDS011;9053;53.358;6.382;2023-04-25T12:38:38;5.80;;;1.50;;
17854;SDS011;9053;53.358;6.382;2023-04-25T12:41:09;8.73;;;1.67;;
17854;SDS011;9053;53.358;6.382;2023-04-25T12:43:42;4.03;;;1.27;;
17854;SDS011;9053;53.358;6.382;2023-04-25T12:46:12;4.17;;;1.07;;
17854;SDS011;9053;53.358;6.382;2023-04-25T12:48:41;3.90;;;1.10;;
17854;SDS011;9053;53.358;6.382;2023-04-25T12:51:13;5.00;;;1.20;;
17854;SDS011;9053;53.358;6.382;2023-04-25T12:53:43;7.50;;;1.60;;
17854;SDS011;9053;53.358;6.382;2023-04-25T12:56:13;4.43;;;1.60;;
17854;SDS011;9053;53.358;6.382;2023-04-25T12:58:45;3.20;;;1.47;;
17854;SDS011;9053;53.358;6.382;2023-04-25T13:01:21;6.83;;;1.60;;
17854;SDS011;9053;53.358;6.382;2023-04-25T13:03:52;7.50;;;1.80;;
17854;SDS011;9053;53.358;6.382;2023-04-25T13:06:22;9.07;;;2.20;;
17854;SDS011;9053;53.358;6.382;2023-04-25T13:08:52;3.87;;;1.30;;
17854;SDS011;9053;53.358;6.382;2023-04-25T13:11:22;7.63;;;1.37;;
17854;SDS011;9053;53.358;6.382;2023-04-25T13:13:55;7.20;;;1.80;;
17854;SDS011;9053;53.358;6.382;2023-04-25T13:16:25;5.60;;;1.60;;
17854;SDS011;9053;53.358;6.382;2023-04-25T13:18:55;7.43;;;1.67;;
17854;SDS011;9053;53.358;6.382;2023-04-25T13:21:25;6.43;;;1.67;;
17854;SDS011;9053;53.358;6.382;2023-04-25T13:23:55;2.73;;;1.03;;
17854;SDS011;9053;53.358;6.382;2023-04-25T13:26:25;4.57;;;1.50;;
17854;SDS011;9053;53.358;6.382;2023-04-25T13:28:58;4.07;;;1.40;;
17854;SDS011;9053;53.358;6.382;2023-04-25T13:34:03;5.80;;;1.67;;
17854;SDS011;9053;53.358;6.382;2023-04-25T13:36:33;7.80;;;1.80;;
17854;SDS011;9053;53.358;6.382;2023-04-25T13:39:03;6.73;;;1.73;;
17854;SDS011;9053;53.358;6.382;2023-04-25T13:41:33;6.77;;;1.60;;
17854;SDS011;9053;53.358;6.382;2023-04-25T13:44:06;8.20;;;1.80;;
17854;SDS011;9053;53.358;6.382;2023-04-25T13:46:36;9.50;;;2.40;;
17854;SDS011;9053;53.358;6.382;2023-04-25T13:49:12;6.93;;;1.80;;
17854;SDS011;9053;53.358;6.382;2023-04-25T13:51:42;6.20;;;1.60;;
17854;SDS011;9053;53.358;6.382;2023-04-25T13:54:12;5.43;;;1.43;;
17854;SDS011;9053;53.358;6.382;2023-04-25T13:56:42;4.87;;;1.30;;
17854;SDS011;9053;53.358;6.382;2023-04-25T13:59:15;9.53;;;1.77;;
17854;SDS011;9053;53.358;6.382;2023-04-25T14:01:44;6.77;;;1.83;;
17854;SDS011;9053;53.358;6.382;2023-04-25T14:04:17;4.97;;;1.67;;
17854;SDS011;9053;53.358;6.382;2023-04-25T14:06:48;6.87;;;1.47;;
17854;SDS011;9053;53.358;6.382;2023-04-25T14:09:20;5.60;;;1.63;;
17854;SDS011;9053;53.358;6.382;2023-04-25T14:11:52;8.40;;;1.63;;
17854;SDS011;9053;53.358;6.382;2023-04-25T14:14:24;8.27;;;1.60;;
17854;SDS011;9053;53.358;6.382;2023-04-25T14:16:54;6.07;;;1.70;;
17854;SDS011;9053;53.358;6.382;2023-04-25T14:19:25;6.73;;;1.77;;
17854;SDS011;9053;53.358;6.382;2023-04-25T14:21:55;5.97;;;1.80;;
17854;SDS011;9053;53.358;6.382;2023-04-25T14:24:25;3.13;;;1.53;;
17854;SDS011;9053;53.358;6.382;2023-04-25T14:26:55;4.17;;;1.50;;
17854;SDS011;9053;53.358;6.382;2023-04-25T14:29:27;5.57;;;1.30;;
17854;SDS011;9053;53.358;6.382;2023-04-25T14:31:57;6.20;;;1.70;;
17854;SDS011;9053;53.358;6.382;2023-04-25T14:34:28;5.97;;;1.50;;
17854;SDS011;9053;53.358;6.382;2023-04-25T14:36:58;7.53;;;1.70;;
17854;SDS011;9053;53.358;6.382;2023-04-25T14:39:28;6.90;;;2.03;;
17854;SDS011;9053;53.358;6.382;2023-04-25T14:41:58;6.13;;;1.73;;
17854;SDS011;9053;53.358;6.382;2023-04-25T14:44:30;5.50;;;1.80;;
17854;SDS011;9053;53.358;6.382;2023-04-25T14:47:00;7.27;;;1.80;;
17854;SDS011;9053;53.358;6.382;2023-04-25T14:49:31;7.03;;;1.57;;
17854;SDS011;9053;53.358;6.382;2023-04-25T14:52:03;7.80;;;1.73;;
17854;SDS011;9053;53.358;6.382;2023-04-25T14:54:33;5.93;;;1.53;;
17854;SDS011;9053;53.358;6.382;2023-04-25T14:57:03;5.73;;;1.40;;
17854;SDS011;9053;53.358;6.382;2023-04-25T14:59:35;3.93;;;1.70;;
17854;SDS011;9053;53.358;6.382;2023-04-25T15:02:07;4.63;;;1.57;;
17854;SDS011;9053;53.358;6.382;2023-04-25T15:04:38;4.90;;;1.33;;
17854;SDS011;9053;53.358;6.382;2023-04-25T15:07:10;7.70;;;1.43;;
17854;SDS011;9053;53.358;6.382;2023-04-25T15:09:43;5.07;;;1.40;;
17854;SDS011;9053;53.358;6.382;2023-04-25T15:12:15;4.73;;;1.37;;
17854;SDS011;9053;53.358;6.382;2023-04-25T15:14:48;6.20;;;1.43;;
17854;SDS011;9053;53.358;6.382;2023-04-25T15:17:20;6.03;;;1.50;;
17854;SDS011;9053;53.358;6.382;2023-04-25T15:19:50;7.63;;;1.40;;
17854;SDS011;9053;53.358;6.382;2023-04-25T15:22:21;10.30;;;1.50;;
17854;SDS011;9053;53.358;6.382;2023-04-25T15:24:50;4.70;;;1.50;;